Terminal Aerodrome Forecast
Issued by NWS Cleveland, OH

Home | Current Version | Previous Version | Text Only | Print | Product List | Glossary On
Versions: 1 2 3 4 5 6 7 8 9 10 11 12 13 14 15 16 17 18 19 20 21 22 23
000
FTUS41 KCLE 302336 CCA
TAFCAK
TAF COR
KCAK 302336Z 3100/3124 10010G18KT P6SM SCT025 OVC080
      TEMPO 3100/3102 2SM -TSRAGS BR OVC025CB
     FM310200 14010KT P6SM OVC045
     FM310600 17010KT 5SM -SHRA BR OVC035
     FM310900 17010KT 4SM -SHRA BR OVC012
      TEMPO 3109/3113 2SM -DZ BR OVC008
     FM311300 18010KT 3SM -DZ BR OVC008
     FM311800 24010KT 5SM -DZ BR OVC012=

USA.gov is the U.S. government's official web portal to all federal, state and local government web resources and services.